sensor_id;sensor_type;location;lat;lon;timestamp;temperature;humidity
20284;DHT22;10301;50.832;4.080;2023-03-03T00:01:22;2.60;68.40
20284;DHT22;10301;50.832;4.080;2023-03-03T00:03:50;2.50;70.40
20284;DHT22;10301;50.832;4.080;2023-03-03T00:06:15;2.50;70.10
20284;DHT22;10301;50.832;4.080;2023-03-03T00:08:41;2.50;72.60
20284;DHT22;10301;50.832;4.080;2023-03-03T00:11:08;2.40;70.50
20284;DHT22;10301;50.832;4.080;2023-03-03T00:13:46;2.40;71.20
20284;DHT22;10301;50.832;4.080;2023-03-03T00:18:46;2.40;72.90
20284;DHT22;10301;50.832;4.080;2023-03-03T00:21:25;2.30;72.00
20284;DHT22;10301;50.832;4.080;2023-03-03T00:23:54;2.30;73.90
20284;DHT22;10301;50.832;4.080;2023-03-03T00:26:28;2.20;74.60
20284;DHT22;10301;50.832;4.080;2023-03-03T00:28:55;2.20;76.40
20284;DHT22;10301;50.832;4.080;2023-03-03T00:31:35;2.20;77.30
20284;DHT22;10301;50.832;4.080;2023-03-03T00:34:24;2.20;78.50
20284;DHT22;10301;50.832;4.080;2023-03-03T00:36:53;2.10;79.60
20284;DHT22;10301;50.832;4.080;2023-03-03T00:41:45;2.10;80.40
20284;DHT22;10301;50.832;4.080;2023-03-03T00:44:39;2.10;81.50
20284;DHT22;10301;50.832;4.080;2023-03-03T00:49:55;2.00;83.90
20284;DHT22;10301;50.832;4.080;2023-03-03T00:52:26;2.00;83.60
20284;DHT22;10301;50.832;4.080;2023-03-03T00:54:54;1.90;85.50
20284;DHT22;10301;50.832;4.080;2023-03-03T00:57:19;1.90;86.80
20284;DHT22;10301;50.832;4.080;2023-03-03T00:59:45;1.90;88.00
20284;DHT22;10301;50.832;4.080;2023-03-03T01:02:10;1.90;88.70
20284;DHT22;10301;50.832;4.080;2023-03-03T01:04:36;1.80;89.90
20284;DHT22;10301;50.832;4.080;2023-03-03T01:07:02;1.90;91.20
20284;DHT22;10301;50.832;4.080;2023-03-03T01:09:28;1.90;92.30
20284;DHT22;10301;50.832;4.080;2023-03-03T01:11:54;1.90;92.80
20284;DHT22;10301;50.832;4.080;2023-03-03T01:14:20;1.90;93.40
20284;DHT22;10301;50.832;4.080;2023-03-03T01:16:46;1.80;93.90
20284;DHT22;10301;50.832;4.080;2023-03-03T01:19:11;1.80;94.50
20284;DHT22;10301;50.832;4.080;2023-03-03T01:21:37;1.80;95.20
20284;DHT22;10301;50.832;4.080;2023-03-03T01:24:04;1.80;96.10
20284;DHT22;10301;50.832;4.080;2023-03-03T01:26:30;1.80;96.80
20284;DHT22;10301;50.832;4.080;2023-03-03T01:28:56;1.80;97.50
20284;DHT22;10301;50.832;4.080;2023-03-03T01:31:21;1.80;98.10
20284;DHT22;10301;50.832;4.080;2023-03-03T01:33:47;1.70;98.40
20284;DHT22;10301;50.832;4.080;2023-03-03T01:36:12;1.70;98.60
20284;DHT22;10301;50.832;4.080;2023-03-03T01:38:38;1.80;99.10
20284;DHT22;10301;50.832;4.080;2023-03-03T01:41:04;1.70;99.20
20284;DHT22;10301;50.832;4.080;2023-03-03T01:43:32;1.70;99.60
20284;DHT22;10301;50.832;4.080;2023-03-03T01:48:43;1.60;99.90
20284;DHT22;10301;50.832;4.080;2023-03-03T01:51:26;1.60;99.90
20284;DHT22;10301;50.832;4.080;2023-03-03T01:54:06;1.60;99.90
20284;DHT22;10301;50.832;4.080;2023-03-03T01:56:35;1.50;99.90
20284;DHT22;10301;50.832;4.080;2023-03-03T01:59:04;1.50;99.90
20284;DHT22;10301;50.832;4.080;2023-03-03T02:01:32;1.50;99.90
20284;DHT22;10301;50.832;4.080;2023-03-03T02:03:59;1.50;99.90
20284;DHT22;10301;50.832;4.080;2023-03-03T02:06:32;1.40;99.90
20284;DHT22;10301;50.832;4.080;2023-03-03T02:09:12;1.50;99.90
20284;DHT22;10301;50.832;4.080;2023-03-03T02:11:41;1.40;99.90
20284;DHT22;10301;50.832;4.080;2023-03-03T02:14:09;1.40;99.90
20284;DHT22;10301;50.832;4.080;2023-03-03T02:16:34;1.40;99.90
20284;DHT22;10301;50.832;4.080;2023-03-03T02:19:00;1.40;99.90
20284;DHT22;10301;50.832;4.080;2023-03-03T02:21:26;1.40;99.90
20284;DHT22;10301;50.832;4.080;2023-03-03T02:23:58;1.40;99.90
20284;DHT22;10301;50.832;4.080;2023-03-03T02:26:27;1.40;99.90
20284;DHT22;10301;50.832;4.080;2023-03-03T02:28:53;1.30;99.90
20284;DHT22;10301;50.832;4.080;2023-03-03T02:31:21;1.30;99.90
20284;DHT22;10301;50.832;4.080;2023-03-03T02:33:49;1.30;99.90
20284;DHT22;10301;50.832;4.080;2023-03-03T02:46:34;1.80;99.90
20284;DHT22;10301;50.832;4.080;2023-03-03T02:49:01;1.80;99.90
20284;DHT22;10301;50.832;4.080;2023-03-03T02:51:26;1.80;99.90
20284;DHT22;10301;50.832;4.080;2023-03-03T02:53:52;2.00;99.50
20284;DHT22;10301;50.832;4.080;2023-03-03T02:56:18;2.10;98.50
20284;DHT22;10301;50.832;4.080;2023-03-03T02:58:43;2.20;97.30
20284;DHT22;10301;50.832;4.080;2023-03-03T03:01:09;2.20;95.80
20284;DHT22;10301;50.832;4.080;2023-03-03T03:03:35;2.10;94.40
20284;DHT22;10301;50.832;4.080;2023-03-03T03:06:00;2.10;93.40
20284;DHT22;10301;50.832;4.080;2023-03-03T03:08:26;2.10;92.40
20284;DHT22;10301;50.832;4.080;2023-03-03T03:10:52;2.10;91.10
20284;DHT22;10301;50.832;4.080;2023-03-03T03:13:18;2.10;88.80
20284;DHT22;10301;50.832;4.080;2023-03-03T03:15:46;2.00;86.50
20284;DHT22;10301;50.832;4.080;2023-03-03T03:18:13;1.70;85.20
20284;DHT22;10301;50.832;4.080;2023-03-03T03:20:39;1.60;87.70
20284;DHT22;10301;50.832;4.080;2023-03-03T03:23:07;1.70;89.30
20284;DHT22;10301;50.832;4.080;2023-03-03T03:25:33;1.70;88.80
20284;DHT22;10301;50.832;4.080;2023-03-03T03:27:58;1.70;86.00
20284;DHT22;10301;50.832;4.080;2023-03-03T03:30:24;1.50;86.10
20284;DHT22;10301;50.832;4.080;2023-03-03T03:32:50;1.60;87.40
20284;DHT22;10301;50.832;4.080;2023-03-03T03:35:16;1.60;85.70
20284;DHT22;10301;50.832;4.080;2023-03-03T03:37:43;1.60;84.00
20284;DHT22;10301;50.832;4.080;2023-03-03T03:40:09;1.60;84.90
20284;DHT22;10301;50.832;4.080;2023-03-03T03:42:35;1.50;86.10
20284;DHT22;10301;50.832;4.080;2023-03-03T03:45:03;1.60;88.70
20284;DHT22;10301;50.832;4.080;2023-03-03T03:47:29;1.70;88.60
20284;DHT22;10301;50.832;4.080;2023-03-03T03:49:54;1.70;86.30
20284;DHT22;10301;50.832;4.080;2023-03-03T03:52:20;1.70;86.50
20284;DHT22;10301;50.832;4.080;2023-03-03T03:54:45;1.80;88.70
20284;DHT22;10301;50.832;4.080;2023-03-03T03:57:11;1.90;89.10
20284;DHT22;10301;50.832;4.080;2023-03-03T03:59:37;2.00;88.30
20284;DHT22;10301;50.832;4.080;2023-03-03T04:02:03;2.10;85.90
20284;DHT22;10301;50.832;4.080;2023-03-03T04:04:29;1.90;87.40
20284;DHT22;10301;50.832;4.080;2023-03-03T04:06:54;2.00;90.10
20284;DHT22;10301;50.832;4.080;2023-03-03T04:09:20;2.00;90.50
20284;DHT22;10301;50.832;4.080;2023-03-03T04:11:46;2.00;91.20
20284;DHT22;10301;50.832;4.080;2023-03-03T04:14:11;2.10;92.20
20284;DHT22;10301;50.832;4.080;2023-03-03T04:16:37;2.30;92.00
20284;DHT22;10301;50.832;4.080;2023-03-03T04:19:03;2.50;90.80
20284;DHT22;10301;50.832;4.080;2023-03-03T04:21:29;2.60;89.10
20284;DHT22;10301;50.832;4.080;2023-03-03T04:23:54;2.70;88.30
20284;DHT22;10301;50.832;4.080;2023-03-03T04:26:20;2.80;85.70
20284;DHT22;10301;50.832;4.080;2023-03-03T04:28:46;2.80;85.60
20284;DHT22;10301;50.832;4.080;2023-03-03T04:31:12;2.90;84.50
20284;DHT22;10301;50.832;4.080;2023-03-03T04:33:37;2.90;82.40
20284;DHT22;10301;50.832;4.080;2023-03-03T04:36:03;3.00;81.30
20284;DHT22;10301;50.832;4.080;2023-03-03T04:38:29;3.10;79.50
20284;DHT22;10301;50.832;4.080;2023-03-03T04:40:56;3.10;78.60
20284;DHT22;10301;50.832;4.080;2023-03-03T04:43:21;2.90;82.70
20284;DHT22;10301;50.832;4.080;2023-03-03T04:45:47;2.80;84.00
20284;DHT22;10301;50.832;4.080;2023-03-03T04:48:13;2.60;89.10
20284;DHT22;10301;50.832;4.080;2023-03-03T04:50:38;2.70;91.70
20284;DHT22;10301;50.832;4.080;2023-03-03T04:53:04;2.90;92.20
20284;DHT22;10301;50.832;4.080;2023-03-03T04:55:30;3.10;86.30
20284;DHT22;10301;50.832;4.080;2023-03-03T04:57:56;2.70;90.60
20284;DHT22;10301;50.832;4.080;2023-03-03T05:00:21;2.40;94.20
20284;DHT22;10301;50.832;4.080;2023-03-03T05:02:47;2.30;98.00
20284;DHT22;10301;50.832;4.080;2023-03-03T05:05:13;2.10;98.90
20284;DHT22;10301;50.832;4.080;2023-03-03T05:07:39;2.10;99.90
20284;DHT22;10301;50.832;4.080;2023-03-03T05:10:06;2.10;99.90
20284;DHT22;10301;50.832;4.080;2023-03-03T05:12:32;1.90;99.90
20284;DHT22;10301;50.832;4.080;2023-03-03T05:14:58;2.00;99.90
20284;DHT22;10301;50.832;4.080;2023-03-03T05:17:23;1.90;99.90
20284;DHT22;10301;50.832;4.080;2023-03-03T05:19:49;1.80;99.90
20284;DHT22;10301;50.832;4.080;2023-03-03T05:22:15;1.80;99.90
20284;DHT22;10301;50.832;4.080;2023-03-03T05:24:40;2.00;99.90
20284;DHT22;10301;50.832;4.080;2023-03-03T05:27:07;2.00;99.90
20284;DHT22;10301;50.832;4.080;2023-03-03T05:29:33;1.90;99.90
20284;DHT22;10301;50.832;4.080;2023-03-03T05:31:59;1.90;99.90
20284;DHT22;10301;50.832;4.080;2023-03-03T05:34:25;2.00;99.90
20284;DHT22;10301;50.832;4.080;2023-03-03T05:36:51;2.20;99.90
20284;DHT22;10301;50.832;4.080;2023-03-03T05:39:17;2.20;99.90
20284;DHT22;10301;50.832;4.080;2023-03-03T05:41:42;2.20;99.90
20284;DHT22;10301;50.832;4.080;2023-03-03T05:44:08;2.20;99.90
20284;DHT22;10301;50.832;4.080;2023-03-03T05:46:34;2.40;99.90
20284;DHT22;10301;50.832;4.080;2023-03-03T05:49:00;2.30;98.00
20284;DHT22;10301;50.832;4.080;2023-03-03T05:51:26;2.10;98.10
20284;DHT22;10301;50.832;4.080;2023-03-03T05:53:52;1.70;98.90
20284;DHT22;10301;50.832;4.080;2023-03-03T05:56:17;1.50;99.90
20284;DHT22;10301;50.832;4.080;2023-03-03T05:58:43;1.50;99.90
20284;DHT22;10301;50.832;4.080;2023-03-03T06:01:10;1.50;99.90
20284;DHT22;10301;50.832;4.080;2023-03-03T06:03:35;1.90;99.90
20284;DHT22;10301;50.832;4.080;2023-03-03T06:06:01;2.00;99.90
20284;DHT22;10301;50.832;4.080;2023-03-03T06:08:27;2.00;99.90
20284;DHT22;10301;50.832;4.080;2023-03-03T06:10:53;1.90;99.70
20284;DHT22;10301;50.832;4.080;2023-03-03T06:13:19;2.10;99.00
20284;DHT22;10301;50.832;4.080;2023-03-03T06:15:45;1.90;98.10
20284;DHT22;10301;50.832;4.080;2023-03-03T06:18:10;1.70;99.40
20284;DHT22;10301;50.832;4.080;2023-03-03T06:20:36;1.70;99.90
20284;DHT22;10301;50.832;4.080;2023-03-03T06:23:03;2.00;99.90
20284;DHT22;10301;50.832;4.080;2023-03-03T06:25:28;2.00;99.90
20284;DHT22;10301;50.832;4.080;2023-03-03T06:27:54;2.10;99.90
20284;DHT22;10301;50.832;4.080;2023-03-03T06:30:20;2.10;99.70
20284;DHT22;10301;50.832;4.080;2023-03-03T06:32:45;1.80;97.20
20284;DHT22;10301;50.832;4.080;2023-03-03T06:35:11;1.70;98.70
20284;DHT22;10301;50.832;4.080;2023-03-03T06:37:37;1.70;98.90
20284;DHT22;10301;50.832;4.080;2023-03-03T06:40:04;1.70;98.90
20284;DHT22;10301;50.832;4.080;2023-03-03T06:42:32;1.70;99.90
20284;DHT22;10301;50.832;4.080;2023-03-03T06:44:58;1.70;99.70
20284;DHT22;10301;50.832;4.080;2023-03-03T06:47:23;1.70;99.80
20284;DHT22;10301;50.832;4.080;2023-03-03T06:49:49;1.70;99.10
20284;DHT22;10301;50.832;4.080;2023-03-03T06:52:22;1.50;99.30
20284;DHT22;10301;50.832;4.080;2023-03-03T06:54:49;1.60;99.90
20284;DHT22;10301;50.832;4.080;2023-03-03T06:57:29;1.60;99.90
20284;DHT22;10301;50.832;4.080;2023-03-03T06:59:59;1.60;99.90
20284;DHT22;10301;50.832;4.080;2023-03-03T07:02:26;1.70;99.90
20284;DHT22;10301;50.832;4.080;2023-03-03T07:04:55;1.70;99.90
20284;DHT22;10301;50.832;4.080;2023-03-03T07:07:23;1.70;99.90
20284;DHT22;10301;50.832;4.080;2023-03-03T07:09:51;1.80;99.90
20284;DHT22;10301;50.832;4.080;2023-03-03T07:12:20;1.80;99.30
20284;DHT22;10301;50.832;4.080;2023-03-03T07:14:52;1.80;98.60
20284;DHT22;10301;50.832;4.080;2023-03-03T07:17:23;1.90;99.30
20284;DHT22;10301;50.832;4.080;2023-03-03T07:19:49;1.70;99.00
20284;DHT22;10301;50.832;4.080;2023-03-03T07:22:20;1.80;99.90
20284;DHT22;10301;50.832;4.080;2023-03-03T07:24:58;1.80;99.80
20284;DHT22;10301;50.832;4.080;2023-03-03T07:27:28;2.10;99.90
20284;DHT22;10301;50.832;4.080;2023-03-03T07:30:28;2.10;99.50
20284;DHT22;10301;50.832;4.080;2023-03-03T07:32:47;2.10;98.50
20284;DHT22;10301;50.832;4.080;2023-03-03T07:35:34;2.20;98.00
20284;DHT22;10301;50.832;4.080;2023-03-03T07:38:02;2.30;97.60
20284;DHT22;10301;50.832;4.080;2023-03-03T07:40:37;2.20;95.80
20284;DHT22;10301;50.832;4.080;2023-03-03T07:43:30;2.30;96.80
20284;DHT22;10301;50.832;4.080;2023-03-03T07:46:01;2.30;95.50
20284;DHT22;10301;50.832;4.080;2023-03-03T07:48:36;2.20;95.90
20284;DHT22;10301;50.832;4.080;2023-03-03T07:51:21;2.10;96.10
20284;DHT22;10301;50.832;4.080;2023-03-03T07:53:47;2.10;96.50
20284;DHT22;10301;50.832;4.080;2023-03-03T07:56:20;2.10;96.10
20284;DHT22;10301;50.832;4.080;2023-03-03T07:58:47;2.10;97.10
20284;DHT22;10301;50.832;4.080;2023-03-03T08:01:38;2.00;96.90
20284;DHT22;10301;50.832;4.080;2023-03-03T08:07:02;1.90;99.80
20284;DHT22;10301;50.832;4.080;2023-03-03T08:09:37;1.90;99.50
20284;DHT22;10301;50.832;4.080;2023-03-03T08:14:36;2.20;98.00
20284;DHT22;10301;50.832;4.080;2023-03-03T08:17:23;2.20;97.10
20284;DHT22;10301;50.832;4.080;2023-03-03T08:19:50;2.30;95.00
20284;DHT22;10301;50.832;4.080;2023-03-03T08:22:19;2.10;94.80
20284;DHT22;10301;50.832;4.080;2023-03-03T08:24:49;2.10;96.30
20284;DHT22;10301;50.832;4.080;2023-03-03T08:27:16;2.10;96.00
20284;DHT22;10301;50.832;4.080;2023-03-03T08:29:41;2.30;95.80
20284;DHT22;10301;50.832;4.080;2023-03-03T08:32:07;2.30;93.90
20284;DHT22;10301;50.832;4.080;2023-03-03T08:34:32;2.40;93.70
20284;DHT22;10301;50.832;4.080;2023-03-03T08:36:58;2.50;93.60
20284;DHT22;10301;50.832;4.080;2023-03-03T08:39:24;2.70;92.40
20284;DHT22;10301;50.832;4.080;2023-03-03T08:41:49;2.70;90.20
20284;DHT22;10301;50.832;4.080;2023-03-03T08:44:15;2.50;90.70
20284;DHT22;10301;50.832;4.080;2023-03-03T08:46:41;2.30;92.30
20284;DHT22;10301;50.832;4.080;2023-03-03T08:49:08;2.10;93.50
20284;DHT22;10301;50.832;4.080;2023-03-03T08:51:34;2.30;95.10
20284;DHT22;10301;50.832;4.080;2023-03-03T08:53:59;2.50;94.40
20284;DHT22;10301;50.832;4.080;2023-03-03T08:56:25;2.80;94.20
20284;DHT22;10301;50.832;4.080;2023-03-03T08:58:51;3.10;92.40
20284;DHT22;10301;50.832;4.080;2023-03-03T09:01:16;3.20;89.60
20284;DHT22;10301;50.832;4.080;2023-03-03T09:03:43;3.00;78.20
20284;DHT22;10301;50.832;4.080;2023-03-03T09:06:09;3.10;78.40
20284;DHT22;10301;50.832;4.080;2023-03-03T09:08:36;3.20;75.10
20284;DHT22;10301;50.832;4.080;2023-03-03T09:11:02;3.10;68.30
20284;DHT22;10301;50.832;4.080;2023-03-03T09:13:33;3.10;70.40
20284;DHT22;10301;50.832;4.080;2023-03-03T09:15:59;3.00;78.10
20284;DHT22;10301;50.832;4.080;2023-03-03T09:18:31;2.80;74.20
20284;DHT22;10301;50.832;4.080;2023-03-03T09:20:59;2.50;76.60
20284;DHT22;10301;50.832;4.080;2023-03-03T09:23:40;2.50;82.10
20284;DHT22;10301;50.832;4.080;2023-03-03T09:31:47;2.40;84.20
20284;DHT22;10301;50.832;4.080;2023-03-03T09:37:05;2.60;84.60
20284;DHT22;10301;50.832;4.080;2023-03-03T09:39:39;2.80;80.90
20284;DHT22;10301;50.832;4.080;2023-03-03T09:47:34;3.30;68.60
20284;DHT22;10301;50.832;4.080;2023-03-03T10:05:16;4.10;43.70
20284;DHT22;10301;50.832;4.080;2023-03-03T10:16:21;3.90;49.40
20284;DHT22;10301;50.832;4.080;2023-03-03T10:32:29;4.40;32.70
20284;DHT22;10301;50.832;4.080;2023-03-03T10:40:31;5.10;32.50
20284;DHT22;10301;50.832;4.080;2023-03-03T11:03:29;5.50;1.00
20284;DHT22;10301;50.832;4.080;2023-03-03T11:06:00;5.50;1.00
20284;DHT22;10301;50.832;4.080;2023-03-03T11:11:58;5.80;1.00
20284;DHT22;10301;50.832;4.080;2023-03-03T11:20:25;5.30;1.00
20284;DHT22;10301;50.832;4.080;2023-03-03T11:26:03;5.20;1.00
20284;DHT22;10301;50.832;4.080;2023-03-03T11:31:27;6.20;1.00
20284;DHT22;10301;50.832;4.080;2023-03-03T11:37:25;6.40;1.00
20284;DHT22;10301;50.832;4.080;2023-03-03T11:39:56;6.20;1.00
20284;DHT22;10301;50.832;4.080;2023-03-03T11:43:00;6.40;1.00
20284;DHT22;10301;50.832;4.080;2023-03-03T11:45:42;6.70;1.00
20284;DHT22;10301;50.832;4.080;2023-03-03T11:48:22;7.10;1.00
20284;DHT22;10301;50.832;4.080;2023-03-03T11:50:58;7.20;1.00
20284;DHT22;10301;50.832;4.080;2023-03-03T11:53:44;7.20;1.00
20284;DHT22;10301;50.832;4.080;2023-03-03T12:01:56;7.00;1.00
20284;DHT22;10301;50.832;4.080;2023-03-03T12:04:34;6.10;1.00
20284;DHT22;10301;50.832;4.080;2023-03-03T12:10:46;5.80;1.00
20284;DHT22;10301;50.832;4.080;2023-03-03T12:12:42;6.10;1.00
20284;DHT22;10301;50.832;4.080;2023-03-03T12:29:26;6.80;1.00
20284;DHT22;10301;50.832;4.080;2023-03-03T12:32:14;6.70;1.00
20284;DHT22;10301;50.832;4.080;2023-03-03T12:35:19;7.00;1.00
20284;DHT22;10301;50.832;4.080;2023-03-03T12:40:34;7.70;99.90
20284;DHT22;10301;50.832;4.080;2023-03-03T12:46:06;7.30;1.00
20284;DHT22;10301;50.832;4.080;2023-03-03T12:48:44;7.30;1.00
20284;DHT22;10301;50.832;4.080;2023-03-03T12:51:30;7.10;99.90
20284;DHT22;10301;50.832;4.080;2023-03-03T12:54:14;6.50;1.00
20284;DHT22;10301;50.832;4.080;2023-03-03T13:11:11;6.60;1.00
20284;DHT22;10301;50.832;4.080;2023-03-03T13:16:33;6.40;1.00
20284;DHT22;10301;50.832;4.080;2023-03-03T13:19:07;6.50;1.00
20284;DHT22;10301;50.832;4.080;2023-03-03T13:21:47;6.50;1.00
20284;DHT22;10301;50.832;4.080;2023-03-03T13:27:16;6.20;1.00
20284;DHT22;10301;50.832;4.080;2023-03-03T13:30:03;6.20;1.00
20284;DHT22;10301;50.832;4.080;2023-03-03T13:32:50;6.40;1.00
20284;DHT22;10301;50.832;4.080;2023-03-03T13:38:01;6.60;1.00
20284;DHT22;10301;50.832;4.080;2023-03-03T13:40:53;6.50;1.00
20284;DHT22;10301;50.832;4.080;2023-03-03T13:43:25;6.50;1.00
20284;DHT22;10301;50.832;4.080;2023-03-03T13:46:02;6.70;1.00
20284;DHT22;10301;50.832;4.080;2023-03-03T13:51:38;6.70;1.00
20284;DHT22;10301;50.832;4.080;2023-03-03T13:57:15;6.70;1.00
20284;DHT22;10301;50.832;4.080;2023-03-03T13:59:58;6.70;1.00
20284;DHT22;10301;50.832;4.080;2023-03-03T14:05:40;6.70;1.00
20284;DHT22;10301;50.832;4.080;2023-03-03T14:11:25;6.70;1.00
20284;DHT22;10301;50.832;4.080;2023-03-03T14:19:41;7.00;1.00
20284;DHT22;10301;50.832;4.080;2023-03-03T14:22:15;7.20;1.00
20284;DHT22;10301;50.832;4.080;2023-03-03T14:24:58;7.30;1.00
20284;DHT22;10301;50.832;4.080;2023-03-03T14:27:33;7.30;1.00
20284;DHT22;10301;50.832;4.080;2023-03-03T14:30:06;7.20;1.00
20284;DHT22;10301;50.832;4.080;2023-03-03T14:38:12;6.90;1.00
20284;DHT22;10301;50.832;4.080;2023-03-03T14:40:39;6.80;1.00
20284;DHT22;10301;50.832;4.080;2023-03-03T14:43:25;6.90;1.00
20284;DHT22;10301;50.832;4.080;2023-03-03T14:45:52;7.10;1.00
20284;DHT22;10301;50.832;4.080;2023-03-03T14:48:23;7.00;1.00
20284;DHT22;10301;50.832;4.080;2023-03-03T14:50:57;7.10;1.00
20284;DHT22;10301;50.832;4.080;2023-03-03T14:53:37;7.00;1.00
20284;DHT22;10301;50.832;4.080;2023-03-03T14:56:32;7.00;1.00
20284;DHT22;10301;50.832;4.080;2023-03-03T14:59:17;6.90;1.00
20284;DHT22;10301;50.832;4.080;2023-03-03T15:01:44;7.10;1.00
20284;DHT22;10301;50.832;4.080;2023-03-03T15:06:45;7.30;1.00
20284;DHT22;10301;50.832;4.080;2023-03-03T15:09:29;7.20;1.00
20284;DHT22;10301;50.832;4.080;2023-03-03T15:11:59;7.30;1.00
20284;DHT22;10301;50.832;4.080;2023-03-03T15:14:31;7.30;1.00
20284;DHT22;10301;50.832;4.080;2023-03-03T15:19:44;7.20;1.00
20284;DHT22;10301;50.832;4.080;2023-03-03T15:28:18;7.20;1.00
20284;DHT22;10301;50.832;4.080;2023-03-03T15:36:47;7.60;1.00
20284;DHT22;10301;50.832;4.080;2023-03-03T15:39:30;7.90;99.90
20284;DHT22;10301;50.832;4.080;2023-03-03T15:42:31;8.10;99.90
20284;DHT22;10301;50.832;4.080;2023-03-03T15:53:09;7.80;99.90
20284;DHT22;10301;50.832;4.080;2023-03-03T16:04:19;8.00;99.90
20284;DHT22;10301;50.832;4.080;2023-03-03T16:10:42;8.50;95.00
20284;DHT22;10301;50.832;4.080;2023-03-03T16:12:57;8.10;1.00
20284;DHT22;10301;50.832;4.080;2023-03-03T16:18:36;7.90;1.00
20284;DHT22;10301;50.832;4.080;2023-03-03T16:23:59;8.00;1.00
20284;DHT22;10301;50.832;4.080;2023-03-03T16:30:09;7.80;87.40
20284;DHT22;10301;50.832;4.080;2023-03-03T16:32:45;7.80;1.00
20284;DHT22;10301;50.832;4.080;2023-03-03T16:35:24;7.80;1.00
20284;DHT22;10301;50.832;4.080;2023-03-03T16:37:55;7.50;99.90
20284;DHT22;10301;50.832;4.080;2023-03-03T16:40:37;7.50;99.90
20284;DHT22;10301;50.832;4.080;2023-03-03T16:46:23;7.90;1.00
20284;DHT22;10301;50.832;4.080;2023-03-03T16:49:30;7.70;1.00
20284;DHT22;10301;50.832;4.080;2023-03-03T16:52:00;7.70;1.00
20284;DHT22;10301;50.832;4.080;2023-03-03T16:55:04;7.60;27.50
20284;DHT22;10301;50.832;4.080;2023-03-03T17:00:26;7.30;99.90
20284;DHT22;10301;50.832;4.080;2023-03-03T17:11:18;6.90;1.00
20284;DHT22;10301;50.832;4.080;2023-03-03T17:22:24;6.60;1.00
20284;DHT22;10301;50.832;4.080;2023-03-03T17:27:47;6.70;1.00
20284;DHT22;10301;50.832;4.080;2023-03-03T17:33:06;7.10;1.00
20284;DHT22;10301;50.832;4.080;2023-03-03T17:40:57;7.10;1.00
20284;DHT22;10301;50.832;4.080;2023-03-03T17:46:01;6.70;1.00
20284;DHT22;10301;50.832;4.080;2023-03-03T17:56:52;6.80;1.00
20284;DHT22;10301;50.832;4.080;2023-03-03T18:02:28;6.80;1.00
20284;DHT22;10301;50.832;4.080;2023-03-03T18:16:44;6.70;1.00
20284;DHT22;10301;50.832;4.080;2023-03-03T18:21:57;6.70;1.00
20284;DHT22;10301;50.832;4.080;2023-03-03T18:24:54;7.00;1.00
20284;DHT22;10301;50.832;4.080;2023-03-03T18:33:01;7.00;1.00
20284;DHT22;10301;50.832;4.080;2023-03-03T18:35:41;7.00;1.00
20284;DHT22;10301;50.832;4.080;2023-03-03T18:49:04;7.10;99.90
20284;DHT22;10301;50.832;4.080;2023-03-03T18:54:21;7.10;1.00
20284;DHT22;10301;50.832;4.080;2023-03-03T19:04:40;7.20;1.00
20284;DHT22;10301;50.832;4.080;2023-03-03T19:07:27;7.20;99.90
20284;DHT22;10301;50.832;4.080;2023-03-03T19:09:56;7.00;1.00
20284;DHT22;10301;50.832;4.080;2023-03-03T19:12:46;7.20;1.00
20284;DHT22;10301;50.832;4.080;2023-03-03T19:18:04;7.90;1.00
20284;DHT22;10301;50.832;4.080;2023-03-03T19:20:38;8.10;99.90
20284;DHT22;10301;50.832;4.080;2023-03-03T19:23:11;8.10;1.00
20284;DHT22;10301;50.832;4.080;2023-03-03T19:25:38;8.20;99.90
20284;DHT22;10301;50.832;4.080;2023-03-03T19:31:01;8.10;99.90
20284;DHT22;10301;50.832;4.080;2023-03-03T19:34:02;8.00;1.00
20284;DHT22;10301;50.832;4.080;2023-03-03T19:42:54;8.20;99.90
20284;DHT22;10301;50.832;4.080;2023-03-03T19:53:50;8.00;1.00
20284;DHT22;10301;50.832;4.080;2023-03-03T19:56:44;8.00;99.90
20284;DHT22;10301;50.832;4.080;2023-03-03T20:01:50;7.90;1.00
20284;DHT22;10301;50.832;4.080;2023-03-03T20:07:19;8.10;99.90
20284;DHT22;10301;50.832;4.080;2023-03-03T20:21:12;7.30;1.00
20284;DHT22;10301;50.832;4.080;2023-03-03T20:29:56;7.50;99.90
20284;DHT22;10301;50.832;4.080;2023-03-03T20:32:34;7.80;1.00
20284;DHT22;10301;50.832;4.080;2023-03-03T20:52:02;7.20;99.90
20284;DHT22;10301;50.832;4.080;2023-03-03T20:54:39;7.00;1.00
20284;DHT22;10301;50.832;4.080;2023-03-03T20:59:56;7.40;1.00
20284;DHT22;10301;50.832;4.080;2023-03-03T21:05:18;7.20;99.90
20284;DHT22;10301;50.832;4.080;2023-03-03T21:07:57;7.40;1.00
20284;DHT22;10301;50.832;4.080;2023-03-03T21:10:29;7.10;99.90
20284;DHT22;10301;50.832;4.080;2023-03-03T21:12:57;6.90;1.00
20284;DHT22;10301;50.832;4.080;2023-03-03T21:15:33;7.10;99.90
20284;DHT22;10301;50.832;4.080;2023-03-03T21:18:19;7.30;1.00
20284;DHT22;10301;50.832;4.080;2023-03-03T21:20:45;7.20;43.60
20284;DHT22;10301;50.832;4.080;2023-03-03T21:23:11;7.30;1.00
20284;DHT22;10301;50.832;4.080;2023-03-03T21:28:17;6.80;99.90
20284;DHT22;10301;50.832;4.080;2023-03-03T21:31:13;7.00;99.90
20284;DHT22;10301;50.832;4.080;2023-03-03T21:33:54;7.30;99.90
20284;DHT22;10301;50.832;4.080;2023-03-03T21:36:23;7.10;1.00
20284;DHT22;10301;50.832;4.080;2023-03-03T21:38:52;7.00;1.00
20284;DHT22;10301;50.832;4.080;2023-03-03T21:41:19;7.20;1.00
20284;DHT22;10301;50.832;4.080;2023-03-03T21:43:50;7.10;26.70
20284;DHT22;10301;50.832;4.080;2023-03-03T21:46:21;7.30;1.00
20284;DHT22;10301;50.832;4.080;2023-03-03T21:48:48;7.40;1.00
20284;DHT22;10301;50.832;4.080;2023-03-03T21:51:14;7.50;99.90
20284;DHT22;10301;50.832;4.080;2023-03-03T21:53:42;7.20;1.00
20284;DHT22;10301;50.832;4.080;2023-03-03T21:56:09;7.40;1.00
20284;DHT22;10301;50.832;4.080;2023-03-03T21:58:35;7.30;1.00
20284;DHT22;10301;50.832;4.080;2023-03-03T22:01:04;7.00;99.90
20284;DHT22;10301;50.832;4.080;2023-03-03T22:03:29;7.00;1.00
20284;DHT22;10301;50.832;4.080;2023-03-03T22:05:55;7.10;1.00
20284;DHT22;10301;50.832;4.080;2023-03-03T22:08:21;7.40;1.00
20284;DHT22;10301;50.832;4.080;2023-03-03T22:10:51;7.30;1.00
20284;DHT22;10301;50.832;4.080;2023-03-03T22:13:24;7.20;1.00
20284;DHT22;10301;50.832;4.080;2023-03-03T22:15:50;7.20;1.00
20284;DHT22;10301;50.832;4.080;2023-03-03T22:18:16;7.00;1.00
20284;DHT22;10301;50.832;4.080;2023-03-03T22:20:44;7.00;1.00
20284;DHT22;10301;50.832;4.080;2023-03-03T22:23:10;6.80;1.00
20284;DHT22;10301;50.832;4.080;2023-03-03T22:25:36;6.90;1.00
20284;DHT22;10301;50.832;4.080;2023-03-03T22:28:02;6.80;1.00
20284;DHT22;10301;50.832;4.080;2023-03-03T22:30:27;6.80;1.00
20284;DHT22;10301;50.832;4.080;2023-03-03T22:32:53;7.10;99.90
20284;DHT22;10301;50.832;4.080;2023-03-03T22:35:20;7.20;1.00
20284;DHT22;10301;50.832;4.080;2023-03-03T22:37:46;7.20;1.00
20284;DHT22;10301;50.832;4.080;2023-03-03T22:40:12;7.00;99.90
20284;DHT22;10301;50.832;4.080;2023-03-03T22:42:37;7.10;99.90
20284;DHT22;10301;50.832;4.080;2023-03-03T22:45:04;7.10;1.00
20284;DHT22;10301;50.832;4.080;2023-03-03T22:47:29;6.90;1.00
20284;DHT22;10301;50.832;4.080;2023-03-03T22:49:57;6.50;1.00
20284;DHT22;10301;50.832;4.080;2023-03-03T22:52:23;6.30;79.10
20284;DHT22;10301;50.832;4.080;2023-03-03T22:54:48;6.40;99.90